Time;durP1;ratioP1;P1;durP2;ratioP2;P2;SDS_P1;SDS_P2;PMS_P1;PMS_P2;Temp;Humidity;BMP_temperature;BMP_pressure;BME280_temperature;BME280_humidity;BME280_pressure;Samples;Min_cycle;Max_cycle;Signal;HPM_P1;HPM_P2
2023/08/23 04:31:20;;;;;;;;;0.75;0.75;;;;;32.22;34.79;101493.97;5472664;23;46204;-58
2023/08/23 04:33:45;;;;;;;;;1.00;1.00;;;;;32.07;35.29;101493.94;4960877;28;45452;-57
2023/08/23 04:36:11;;;;;;;;;1.50;1.50;;;;;31.99;35.21;101496.81;4961445;28;46309;-58
2023/08/23 04:38:36;;;;;;;;;0.75;0.75;;;;;31.99;35.12;101491.28;4961513;28;47879;-58
2023/08/23 04:41:03;;;;;;;;;0.75;0.75;;;;;31.84;35.02;101495.97;4961763;28;45301;-58
2023/08/23 04:43:29;;;;;;;;;0.00;0.00;;;;;31.81;35.32;101497.25;4961737;28;45275;-58
2023/08/23 04:45:54;;;;;;;;;1.00;1.00;;;;;31.83;35.60;101491.47;4961508;28;45365;-57
2023/08/23 04:48:20;;;;;;;;;0.75;0.75;;;;;31.82;35.44;101485.06;4961593;28;45464;-57
2023/08/23 04:50:54;;;;;;;;;1.25;1.25;;;;;31.77;35.50;101493.09;4961476;28;45225;-58
2023/08/23 04:53:19;;;;;;;;;2.75;1.25;;;;;31.76;35.63;101494.16;4961286;28;45429;-57
2023/08/23 04:55:45;;;;;;;;;1.00;1.00;;;;;31.78;35.78;101500.38;4961166;28;46041;-59
2023/08/23 04:58:10;;;;;;;;;1.75;1.75;;;;;31.83;35.33;101494.25;4961235;28;45172;-58
2023/08/23 05:00:36;;;;;;;;;1.50;1.50;;;;;31.76;35.46;101485.84;4960823;28;45247;-58
2023/08/23 05:03:02;;;;;;;;;3.00;1.25;;;;;31.83;35.70;101499.78;4961100;28;45396;-59
2023/08/23 05:05:28;;;;;;;;;1.50;1.50;;;;;31.85;35.63;101500.47;4960741;28;47290;-58
2023/08/23 05:07:53;;;;;;;;;0.75;0.75;;;;;31.81;35.49;101494.47;4961173;28;45315;-57
2023/08/23 05:10:19;;;;;;;;;1.00;1.00;;;;;31.90;35.30;101495.22;4961176;28;45246;-57
2023/08/23 05:12:44;;;;;;;;;1.00;1.00;;;;;31.73;36.07;101485.38;4961046;28;45270;-59
2023/08/23 05:15:09;;;;;;;;;1.75;1.75;;;;;31.90;35.71;101500.78;4960393;28;45648;-58
2023/08/23 05:17:35;;;;;;;;;1.75;1.75;;;;;31.99;35.46;101504.28;4960996;28;45270;-57
2023/08/23 05:20:00;;;;;;;;;1.25;1.25;;;;;31.99;35.87;101504.28;4960324;28;45437;-59
2023/08/23 05:22:25;;;;;;;;;2.00;2.00;;;;;31.99;35.94;101499.59;4960989;28;45390;-57
2023/08/23 05:24:51;;;;;;;;;4.00;1.00;;;;;31.98;35.60;101488.72;4960539;28;45943;-56
2023/08/23 05:27:16;;;;;;;;;2.75;1.75;;;;;31.99;35.46;101499.59;4960791;28;45348;-56
2023/08/23 05:29:42;;;;;;;;;1.00;1.00;;;;;32.00;35.55;101504.09;4960792;28;45385;-57
2023/08/23 05:32:07;;;;;;;;;1.75;1.75;;;;;31.96;35.57;101494.44;4960476;28;45322;-57
2023/08/23 05:34:34;;;;;;;;;2.00;2.00;;;;;31.87;35.83;101499.25;4960308;28;48985;-57
2023/08/23 05:36:59;;;;;;;;;1.00;1.00;;;;;31.81;35.83;101504.69;4960274;28;55860;-58
2023/08/23 05:39:24;;;;;;;;;1.00;1.00;;;;;31.77;36.28;101500.56;4960597;28;45237;-57
2023/08/23 05:41:50;;;;;;;;;1.75;1.75;;;;;31.93;36.18;101501.22;4960710;28;45317;-55
2023/08/23 05:44:15;;;;;;;;;2.00;2.00;;;;;31.86;36.00;101505.84;4959725;28;60191;-57
2023/08/23 05:46:40;;;;;;;;;2.50;2.00;;;;;31.95;35.96;101521.31;4959284;28;52593;-56
2023/08/23 05:49:06;;;;;;;;;2.50;1.75;;;;;31.91;35.73;101510.78;4959964;28;51143;-57
2023/08/23 05:51:31;;;;;;;;;1.00;1.00;;;;;31.94;35.49;101508.50;4960555;28;45287;-56
2023/08/23 17:00:08;;;;;;;;;8.25;7.75;;;;;37.31;30.96;101215.53;5113385;27;45727;-58
2023/08/23 17:02:34;;;;;;;;;6.00;6.00;;;;;37.71;30.04;101218.66;5095954;27;45677;-58
2023/08/23 17:04:59;;;;;;;;;4.75;4.75;;;;;37.91;30.08;101196.00;5095262;27;45325;-58
2023/08/23 17:07:25;;;;;;;;;5.00;5.00;;;;;38.07;29.77;101182.19;5088031;27;45485;-58
2023/08/23 17:09:51;;;;;;;;;8.75;7.75;;;;;38.21;29.83;101178.03;5089591;27;45361;-58
2023/08/23 17:12:17;;;;;;;;;6.00;6.00;;;;;38.24;29.06;101187.91;5095584;27;45502;-59
2023/08/23 17:14:42;;;;;;;;;6.25;6.25;;;;;38.28;29.46;101182.72;5095921;27;45247;-58
2023/08/23 17:17:10;;;;;;;;;6.00;6.00;;;;;38.35;29.04;101173.09;5095546;27;57534;-58
2023/08/23 17:19:38;;;;;;;;;6.00;6.00;;;;;38.35;29.20;101170.28;5090208;27;46052;-60
2023/08/23 17:22:04;;;;;;;;;4.75;4.75;;;;;38.43;28.76;101169.91;5095703;27;45289;-59
2023/08/23 17:24:30;;;;;;;;;6.00;5.00;;;;;38.43;28.54;101167.13;5088019;27;45350;-60
2023/08/23 17:26:55;;;;;;;;;5.25;5.25;;;;;38.47;29.41;101157.09;5095647;27;45484;-58
2023/08/23 17:29:20;;;;;;;;;5.25;5.25;;;;;38.54;29.04;101143.00;5095405;27;45571;-57
2023/08/23 17:31:46;;;;;;;;;6.00;6.00;;;;;38.49;28.48;101126.91;5090432;27;51634;-59
2023/08/23 17:34:11;;;;;;;;;5.25;5.25;;;;;38.57;29.08;101134.09;5095418;27;45408;-59
2023/08/23 17:36:36;;;;;;;;;4.50;4.50;;;;;38.44;28.75;101140.81;5095980;27;46186;-58
2023/08/23 17:39:02;;;;;;;;;6.00;6.00;;;;;38.47;28.58;101142.25;5095121;27;60040;-71
2023/08/23 17:41:27;;;;;;;;;7.00;5.25;;;;;38.45;29.08;101106.06;5096222;27;45470;-71
2023/08/23 17:43:54;;;;;;;;;5.50;5.50;;;;;38.45;28.97;101097.66;5095571;27;45326;-69
2023/08/23 17:46:37;;;;;;;;;7.25;5.50;;;;;38.46;28.55;101078.91;5095742;27;45381;-68
2023/08/23 17:49:05;;;;;;;;;4.00;4.00;;;;;38.49;28.68;101064.41;5094941;27;46323;-68
2023/08/23 17:51:32;;;;;;;;;6.75;6.75;;;;;38.40;28.36;101046.28;5083376;27;45333;-68
2023/08/23 17:53:57;;;;;;;;;7.00;7.00;;;;;38.46;28.80;101040.53;5095674;27;45332;-69
2023/08/23 17:56:23;;;;;;;;;5.00;5.00;;;;;38.52;28.41;101066.75;5095445;27;45251;-68
2023/08/23 17:58:48;;;;;;;;;5.75;5.75;;;;;38.45;28.28;101108.84;5093833;27;45416;-67
2023/08/23 18:01:15;;;;;;;;;7.00;7.00;;;;;38.47;28.07;101140.28;5080637;28;62302;-69
2023/08/23 18:03:41;;;;;;;;;5.25;3.50;;;;;38.45;28.29;101142.47;5081853;27;45393;-68
2023/08/23 18:06:06;;;;;;;;;5.50;5.50;;;;;38.46;28.21;101130.19;5081702;27;45377;-68
2023/08/23 18:08:32;;;;;;;;;6.00;6.00;;;;;38.49;28.48;101118.50;5081304;27;52383;-68
2023/08/23 18:10:57;;;;;;;;;6.50;5.25;;;;;38.45;28.87;101108.03;5081738;27;45333;-68
2023/08/23 18:13:22;;;;;;;;;2.50;2.50;;;;;38.37;28.37;101106.44;5081832;27;45436;-68
2023/08/23 18:15:48;;;;;;;;;5.00;5.00;;;;;38.35;28.92;101108.66;5081721;28;47877;-68
2023/08/23 18:18:13;;;;;;;;;4.75;4.75;;;;;38.27;27.64;101109.03;5081274;28;51602;-69
2023/08/23 18:20:40;;;;;;;;;3.75;3.75;;;;;38.19;28.30;101117.78;5081541;27;45496;-69
2023/08/23 18:23:08;;;;;;;;;4.00;4.00;;;;;38.24;27.90;101124.34;5081832;27;45200;-68
2023/08/23 18:25:37;;;;;;;;;7.00;6.00;;;;;38.27;28.67;101137.03;5081394;27;45250;-68
2023/08/23 18:28:04;;;;;;;;;7.00;7.00;;;;;38.28;28.55;101141.53;5081233;27;45332;-67
2023/08/23 18:30:31;;;;;;;;;4.00;4.00;;;;;38.29;27.98;101148.81;5081210;27;45365;-68
2023/08/23 18:32:56;;;;;;;;;4.75;4.75;;;;;38.36;28.47;101154.31;5081329;27;45223;-69
2023/08/23 18:35:22;;;;;;;;;5.50;5.50;;;;;38.35;28.17;101161.03;5080943;28;45492;-67
2023/08/23 18:37:47;;;;;;;;;5.00;5.00;;;;;38.31;28.52;101152.25;5081297;27;45173;-69
2023/08/23 18:40:12;;;;;;;;;5.00;5.00;;;;;38.25;28.31;101158.81;5080700;28;55921;-68
2023/08/23 18:42:38;;;;;;;;;5.00;5.00;;;;;38.21;28.40;101169.66;5081483;27;45489;-68
2023/08/23 18:45:03;;;;;;;;;5.75;5.75;;;;;38.28;28.59;101160.28;5080864;28;50881;-68
2023/08/23 18:47:29;;;;;;;;;6.25;6.25;;;;;38.26;28.66;101163.34;5081331;27;45312;-69
2023/08/23 18:49:54;;;;;;;;;6.25;6.25;;;;;38.32;28.36;101164.28;5080717;27;45501;-69
2023/08/23 18:52:19;;;;;;;;;5.50;5.50;;;;;38.34;28.52;101167.72;5081139;28;45434;-68
2023/08/23 18:54:45;;;;;;;;;9.25;7.50;;;;;38.32;28.90;101165.16;5080802;27;45254;-68
2023/08/23 18:57:10;;;;;;;;;6.00;6.00;;;;;38.24;28.93;101157.97;5080547;27;46007;-69
2023/08/23 18:59:36;;;;;;;;;7.00;7.00;;;;;38.10;28.69;101141.66;5080694;27;45406;-68
2023/08/23 19:02:03;;;;;;;;;5.25;5.25;;;;;38.17;28.72;101146.03;5081671;27;45360;-69
2023/08/23 19:04:28;;;;;;;;;8.25;7.00;;;;;38.06;29.17;101127.28;5080525;27;45573;-67
2023/08/23 19:06:54;;;;;;;;;8.00;8.00;;;;;38.04;29.21;101126.63;5080638;27;47077;-68
2023/08/23 19:09:21;;;;;;;;;8.00;8.00;;;;;37.99;29.56;101125.66;5080507;27;45494;-69
2023/08/23 19:11:46;;;;;;;;;7.25;7.25;;;;;38.13;28.59;101143.94;5079531;27;45306;-69
2023/08/23 19:14:11;;;;;;;;;8.00;8.00;;;;;38.03;29.18;101138.91;5080401;27;46411;-68
2023/08/23 19:16:37;;;;;;;;;7.00;7.00;;;;;38.04;29.28;101131.34;5080578;27;46066;-68
2023/08/23 19:19:02;;;;;;;;;11.00;9.00;;;;;37.99;29.58;101123.69;5080100;27;50783;-69
2023/08/23 19:21:28;;;;;;;;;10.50;10.50;;;;;37.93;30.03;101121.03;5080882;27;45227;-69
2023/08/23 19:23:53;;;;;;;;;8.50;8.50;;;;;37.87;29.72;101122.81;5080664;27;45374;-69
2023/08/23 19:26:18;;;;;;;;;7.00;7.00;;;;;37.75;29.62;101133.16;5080564;28;48471;-67
2023/08/23 19:28:44;;;;;;;;;11.00;8.75;;;;;37.77;30.02;101153.38;5080328;27;45278;-69
2023/08/23 19:31:09;;;;;;;;;6.50;6.50;;;;;37.73;29.64;101180.13;5080792;27;45325;-68
2023/08/23 19:33:34;;;;;;;;;9.25;7.00;;;;;37.67;29.72;101184.72;5080422;27;45380;-68
2023/08/23 19:36:00;;;;;;;;;10.00;6.75;;;;;37.63;30.13;101174.22;5080113;27;46292;-69
2023/08/23 19:38:26;;;;;;;;;7.25;7.00;;;;;37.62;30.29;101173.38;5080292;27;45261;-68
2023/08/23 19:40:53;;;;;;;;;7.50;7.50;;;;;37.74;30.41;101167.84;5080494;28;45345;-68
2023/08/23 19:43:18;;;;;;;;;9.50;9.00;;;;;37.72;30.03;101150.41;5080451;27;45334;-68
2023/08/23 19:45:44;;;;;;;;;10.75;10.75;;;;;37.71;30.59;101146.75;5080023;27;45330;-69
2023/08/23 19:48:09;;;;;;;;;10.50;10.50;;;;;37.70;30.53;101144.19;5080245;27;45522;-67
2023/08/23 19:50:35;;;;;;;;;7.25;7.25;;;;;37.79;30.25;101151.16;5080110;27;45252;-67
2023/08/23 19:53:01;;;;;;;;;7.00;7.00;;;;;37.75;30.47;101142.41;5079536;27;59147;-67
2023/08/23 19:55:27;;;;;;;;;11.50;9.25;;;;;37.75;30.98;101150.81;5080101;27;46305;-67
2023/08/23 19:57:52;;;;;;;;;6.75;6.75;;;;;37.73;30.76;101141.78;5079357;27;45455;-67
2023/08/23 20:00:18;;;;;;;;;9.00;9.00;;;;;37.72;30.58;101142.88;5080166;27;45292;-68
2023/08/23 20:02:43;;;;;;;;;10.25;10.25;;;;;37.61;30.31;101140.03;5079719;27;45285;-67
2023/08/23 20:05:10;;;;;;;;;8.75;8.75;;;;;37.58;30.79;101134.91;5079668;27;45301;-67
2023/08/23 20:07:37;;;;;;;;;12.00;10.00;;;;;37.49;30.70;101137.19;5079636;27;45219;-62
2023/08/23 20:10:07;;;;;;;;;8.25;8.25;;;;;37.53;30.88;101141.19;5072572;27;45514;-63
2023/08/23 20:12:33;;;;;;;;;10.75;9.25;;;;;37.42;31.35;101131.69;5068846;27;45292;-61
2023/08/23 20:14:59;;;;;;;;;9.00;9.00;;;;;37.39;31.16;101139.69;5073311;27;45386;-63
2023/08/23 20:17:27;;;;;;;;;8.00;6.00;;;;;37.35;31.24;101147.69;5079049;27;45216;-62
2023/08/23 20:19:52;;;;;;;;;7.00;7.00;;;;;37.27;31.35;101152.75;5074037;27;45345;-63
2023/08/23 20:22:18;;;;;;;;;7.00;7.00;;;;;37.28;31.49;101151.69;5079006;27;45442;-62
2023/08/23 20:24:49;;;;;;;;;7.25;6.75;;;;;37.32;31.42;101156.56;5078772;27;46213;-64
2023/08/23 20:27:14;;;;;;;;;8.25;6.50;;;;;37.26;31.82;101151.91;5078179;28;45304;-64
2023/08/23 20:29:39;;;;;;;;;9.00;7.75;;;;;37.21;31.62;101162.09;5078815;27;45428;-61
2023/08/23 20:32:05;;;;;;;;;7.00;5.75;;;;;37.26;31.64;101162.28;5078830;28;57635;-63
2023/08/23 20:34:30;;;;;;;;;8.00;5.75;;;;;37.25;31.38;101171.75;5078491;27;46328;-63
2023/08/23 20:36:56;;;;;;;;;6.00;6.00;;;;;37.31;31.02;101168.84;5066718;28;61525;-62
2023/08/23 20:39:22;;;;;;;;;7.00;7.00;;;;;37.41;31.28;101163.56;5059549;28;45425;-62
2023/08/23 20:41:50;;;;;;;;;7.00;7.00;;;;;37.34;31.46;101164.75;5059796;28;45445;-62
2023/08/23 20:44:15;;;;;;;;;9.00;9.00;;;;;37.41;31.77;101165.50;5065924;28;45377;-62
2023/08/23 20:46:41;;;;;;;;;5.50;5.50;;;;;37.39;31.18;101167.66;5079058;27;45413;-62
2023/08/23 20:49:06;;;;;;;;;8.50;7.00;;;;;37.24;31.56;101159.69;5078863;27;45235;-63
2023/08/23 20:51:31;;;;;;;;;4.75;4.75;;;;;37.22;31.47;101166.63;5078574;28;54390;-63
2023/08/23 20:53:57;;;;;;;;;6.50;5.50;;;;;37.23;31.74;101171.97;5078479;27;45216;-60
2023/08/23 20:56:22;;;;;;;;;5.25;5.25;;;;;37.20;31.55;101188.34;5078576;27;45474;-61
2023/08/23 20:58:47;;;;;;;;;7.75;6.75;;;;;37.27;31.85;101191.91;5078408;27;45419;-61
2023/08/23 21:01:13;;;;;;;;;7.75;6.25;;;;;37.24;31.53;101198.00;5078243;28;60801;-64
2023/08/23 21:03:38;;;;;;;;;6.75;5.00;;;;;37.22;31.90;101194.56;5078972;27;59861;-64
2023/08/23 21:06:03;;;;;;;;;7.00;7.00;;;;;37.23;31.62;101196.28;5094108;27;56427;-64
2023/08/23 21:08:29;;;;;;;;;6.25;6.25;;;;;37.21;31.65;101196.53;5079401;27;45325;-64
2023/08/23 21:10:54;;;;;;;;;5.25;5.00;;;;;37.16;31.36;101190.78;5066826;27;55667;-63
2023/08/23 21:13:19;;;;;;;;;7.00;6.50;;;;;37.02;31.68;101176.06;5076814;28;53613;-63
2023/08/23 21:15:48;;;;;;;;;8.00;8.00;;;;;37.08;31.49;101186.34;5078254;28;48835;-63
2023/08/23 21:18:15;;;;;;;;;6.00;6.00;;;;;37.03;31.38;101188.97;5078949;27;45428;-63
2023/08/23 21:20:41;;;;;;;;;8.75;7.00;;;;;37.06;31.40;101185.72;5077125;28;45456;-62
2023/08/23 21:23:06;;;;;;;;;6.25;6.25;;;;;37.10;31.23;101186.06;5078620;27;46136;-62
2023/08/23 21:25:34;;;;;;;;;7.00;7.00;;;;;37.10;31.33;101183.28;5078967;27;45286;-62
2023/08/23 21:27:59;;;;;;;;;7.25;7.25;;;;;37.08;31.54;101189.13;5079033;27;45263;-62
2023/08/23 21:30:24;;;;;;;;;7.25;7.25;;;;;37.12;31.50;101187.56;5078901;28;45247;-62
2023/08/23 21:32:52;;;;;;;;;7.75;7.75;;;;;37.09;31.22;101190.81;5078381;28;53987;-63
2023/08/23 21:35:17;;;;;;;;;6.50;6.50;;;;;37.01;31.50;101177.16;5079948;27;45360;-62
2023/08/23 21:37:42;;;;;;;;;7.75;7.50;;;;;37.04;31.80;101189.81;5082253;27;45357;-62
2023/08/23 21:40:08;;;;;;;;;7.00;7.00;;;;;37.04;31.93;101181.44;5082234;27;45357;-62
2023/08/23 21:42:33;;;;;;;;;6.00;6.00;;;;;37.00;31.30;101181.06;5081998;27;45355;-62
2023/08/23 21:44:59;;;;;;;;;10.75;8.75;;;;;37.05;31.67;101184.00;5081818;28;55296;-62
2023/08/23 21:47:24;;;;;;;;;3.50;3.50;;;;;37.03;31.34;101182.50;5081543;28;54740;-62
2023/08/23 21:49:50;;;;;;;;;3.50;3.50;;;;;37.02;31.33;101181.66;5081626;27;45979;-62
2023/08/23 21:52:17;;;;;;;;;7.00;7.00;;;;;36.98;31.45;101187.97;5081833;27;46307;-63
2023/08/23 21:54:42;;;;;;;;;7.00;7.00;;;;;36.89;31.81;101187.41;5082149;27;45314;-62
2023/08/23 21:57:08;;;;;;;;;6.00;6.00;;;;;36.88;31.77;101185.72;5081659;27;45432;-63
2023/08/23 21:59:34;;;;;;;;;8.25;8.25;;;;;36.92;31.26;101180.53;5073969;28;45185;-63
2023/08/23 22:01:59;;;;;;;;;8.00;8.00;;;;;36.93;31.73;101176.59;5081568;27;45902;-62
2023/08/23 22:04:24;;;;;;;;;9.00;7.00;;;;;36.75;31.84;101164.34;5081812;27;45287;-63
2023/08/23 22:06:50;;;;;;;;;7.25;7.25;;;;;36.76;32.03;101168.84;5082041;27;45240;-62
2023/08/23 22:09:15;;;;;;;;;6.25;6.25;;;;;36.89;32.05;101159.47;5081773;28;45207;-63
2023/08/23 22:11:40;;;;;;;;;9.75;8.00;;;;;36.88;31.49;101146.56;5081387;27;46474;-61
2023/08/23 22:14:05;;;;;;;;;7.50;7.50;;;;;36.74;31.92;101145.91;5081499;27;45358;-62
2023/08/23 22:16:31;;;;;;;;;6.25;6.25;;;;;36.72;31.58;101144.41;5080594;27;45258;-62
2023/08/23 22:18:56;;;;;;;;;7.75;7.75;;;;;36.67;31.90;101141.44;5080864;27;45512;-62
2023/08/23 22:21:22;;;;;;;;;7.00;6.50;;;;;36.70;31.58;101129.81;5081638;27;45305;-63
2023/08/23 22:23:47;;;;;;;;;8.75;7.25;;;;;36.65;32.10;101133.28;5081226;27;45386;-62
2023/08/23 22:26:13;;;;;;;;;9.25;9.25;;;;;36.67;32.03;101128.31;5081781;27;45302;-61
2023/08/23 22:28:39;;;;;;;;;9.00;8.25;;;;;36.74;31.78;101122.69;5081343;27;45495;-62
2023/08/23 22:31:05;;;;;;;;;7.00;6.00;;;;;36.75;31.54;101113.19;5081230;27;47073;-62
2023/08/23 22:33:30;;;;;;;;;8.25;8.25;;;;;36.73;31.81;101113.44;5080911;27;45444;-62
2023/08/23 22:35:57;;;;;;;;;6.00;6.00;;;;;36.63;31.63;101098.28;5081507;27;45337;-62
2023/08/23 22:38:23;;;;;;;;;7.50;6.00;;;;;36.58;31.71;101100.94;5081149;27;45471;-63
2023/08/23 22:40:48;;;;;;;;;6.00;6.00;;;;;36.61;31.93;101117.19;5081089;27;46097;-62
2023/08/23 22:43:14;;;;;;;;;5.00;5.00;;;;;36.59;31.65;101111.84;5080979;27;45213;-62
2023/08/23 22:45:39;;;;;;;;;7.00;7.00;;;;;36.60;31.59;101115.50;5080713;28;54842;-62
2023/08/23 22:48:04;;;;;;;;;11.25;7.75;;;;;36.62;31.53;101118.91;5081021;27;45266;-62
2023/08/23 22:50:30;;;;;;;;;8.25;8.25;;;;;36.58;31.77;101118.50;5080884;27;46153;-63
2023/08/23 22:52:56;;;;;;;;;8.00;8.00;;;;;36.63;31.46;101117.84;5081021;27;47677;-63
2023/08/23 22:55:22;;;;;;;;;6.25;6.25;;;;;36.55;31.90;101113.41;5067882;28;45265;-62
2023/08/23 22:57:47;;;;;;;;;8.25;8.25;;;;;36.55;32.06;101102.22;5080307;27;45385;-63
